createdAt,value
2022-08-12T00:01:13.229Z,4.85
2022-08-12T00:03:33.604Z,4.57
2022-08-12T00:06:04.122Z,4.45
2022-08-12T00:08:28.615Z,4.32
2022-08-12T00:10:51.121Z,4.32
2022-08-12T00:13:12.348Z,4.18
2022-08-12T00:15:34.127Z,3.90
2022-08-12T00:17:54.329Z,5.15
2022-08-12T00:20:14.528Z,4.95
2022-08-12T00:22:34.829Z,4.10
2022-08-12T00:24:55.066Z,4.60
2022-08-12T00:27:15.759Z,5.03
2022-08-12T00:29:36.128Z,5.93
2022-08-12T00:31:56.459Z,5.00
2022-08-12T00:34:16.886Z,4.50
2022-08-12T00:36:50.319Z,4.90
2022-08-12T00:39:11.307Z,5.22
2022-08-12T00:41:31.967Z,5.50
2022-08-12T00:43:36.846Z,4.88
2022-08-12T00:45:58.504Z,4.93
2022-08-12T00:48:00.466Z,5.65
2022-08-12T00:50:02.116Z,5.05
2022-08-12T00:52:08.891Z,5.45
2022-08-12T00:54:10.352Z,5.38
2022-08-12T00:56:12.643Z,5.13
2022-08-12T00:58:16.960Z,5.35
2022-08-12T01:00:23.324Z,5.28
2022-08-12T01:02:25.986Z,5.95
2022-08-12T01:04:47.648Z,4.50
2022-08-12T01:07:08.199Z,5.03
2022-08-12T01:09:28.475Z,4.85
2022-08-12T01:11:30.841Z,4.07
2022-08-12T01:13:34.309Z,5.05
2022-08-12T01:15:36.206Z,5.43
2022-08-12T01:17:38.331Z,5.32
2022-08-12T01:19:40.424Z,5.15
2022-08-12T01:21:55.732Z,5.55
2022-08-12T01:24:30.133Z,4.85
2022-08-12T01:26:33.542Z,5.28
2022-08-12T01:28:35.714Z,5.03
2022-08-12T01:30:39.500Z,5.10
2022-08-12T01:32:41.852Z,4.85
2022-08-12T01:34:53.053Z,5.20
2022-08-12T01:37:02.308Z,5.43
2022-08-12T01:39:04.726Z,5.35
2022-08-12T01:41:10.059Z,6.10
2022-08-12T01:43:15.964Z,5.35
2022-08-12T01:45:22.949Z,5.72
2022-08-12T01:47:43.704Z,5.57
2022-08-12T01:49:51.143Z,6.00
2022-08-12T01:52:15.689Z,6.00
2022-08-12T01:54:19.344Z,5.38
2022-08-12T01:56:24.486Z,5.28
2022-08-12T01:59:00.595Z,5.28
2022-08-12T02:01:08.734Z,5.00
2022-08-12T02:03:17.221Z,5.32
2022-08-12T02:05:54.446Z,5.10
2022-08-12T02:08:17.825Z,5.47
2022-08-12T02:10:49.212Z,5.45
2022-08-12T02:12:51.271Z,5.25
2022-08-12T02:15:01.898Z,5.38
2022-08-12T02:17:55.254Z,4.55
2022-08-12T02:20:10.049Z,5.60
2022-08-12T02:22:27.511Z,4.68
2022-08-12T02:24:31.333Z,4.90
2022-08-12T02:26:33.620Z,5.60
2022-08-12T02:28:37.623Z,5.47
2022-08-12T02:32:45.060Z,4.20
2022-08-12T02:34:46.878Z,5.22
2022-08-12T02:36:49.075Z,5.47
2022-08-12T02:38:51.970Z,4.40
2022-08-12T02:40:57.000Z,4.45
2022-08-12T02:43:01.725Z,5.18
2022-08-12T02:45:06.571Z,4.85
2022-08-12T02:47:59.890Z,5.03
2022-08-12T02:49:31.405Z,4.97
2022-08-12T02:51:39.157Z,4.45
2022-08-12T02:53:41.158Z,5.07
2022-08-12T02:55:43.068Z,5.15
2022-08-12T02:57:45.858Z,6.05
2022-08-12T02:59:48.762Z,5.75
2022-08-12T03:01:53.235Z,5.03
2022-08-12T03:03:57.010Z,4.60
2022-08-12T03:06:21.400Z,5.05
2022-08-12T03:08:32.178Z,5.57
2022-08-12T03:10:38.000Z,5.07
2022-08-12T03:12:49.350Z,4.53
2022-08-12T03:14:53.190Z,5.60
2022-08-12T03:17:01.295Z,4.78
2022-08-12T03:19:03.916Z,4.75
2022-08-12T03:21:05.482Z,5.38
2022-08-12T03:23:29.326Z,5.45
2022-08-12T03:25:34.547Z,4.97
2022-08-12T03:27:40.435Z,4.68
2022-08-12T03:29:50.001Z,4.50
2022-08-12T03:31:55.895Z,5.07
2022-08-12T03:34:02.408Z,5.78
2022-08-12T03:36:07.565Z,5.03
2022-08-12T03:38:12.106Z,6.50
2022-08-12T03:40:33.846Z,5.05
2022-08-12T03:42:40.541Z,4.63
2022-08-12T03:45:05.039Z,5.18
2022-08-12T03:47:25.246Z,5.05
2022-08-12T03:49:45.687Z,4.78
2022-08-12T03:52:05.758Z,4.60
2022-08-12T03:54:25.564Z,4.57
2022-08-12T03:56:46.061Z,4.75
2022-08-12T03:59:06.154Z,4.95
2022-08-12T04:01:07.950Z,6.78
2022-08-12T04:03:29.519Z,5.50
2022-08-12T04:05:54.278Z,4.35
2022-08-12T04:07:58.221Z,4.60
2022-08-12T04:10:00.474Z,5.32
2022-08-12T04:12:21.916Z,4.25
2022-08-12T04:14:25.831Z,4.63
2022-08-12T04:16:27.801Z,4.82
2022-08-12T04:18:31.815Z,5.13
2022-08-12T04:20:33.369Z,6.85
2022-08-12T04:22:35.309Z,5.10
2022-08-12T04:24:37.984Z,4.55
2022-08-12T04:26:42.557Z,4.95
2022-08-12T04:28:44.797Z,5.00
2022-08-12T04:30:46.548Z,5.05
2022-08-12T04:32:52.202Z,5.22
2022-08-12T04:34:56.455Z,5.10
2022-08-12T04:36:57.925Z,4.75
2022-08-12T04:38:59.920Z,5.00
2022-08-12T04:41:01.510Z,4.28
2022-08-12T04:43:03.091Z,4.65
2022-08-12T04:45:04.782Z,4.50
2022-08-12T04:47:06.466Z,4.75
2022-08-12T04:49:08.118Z,4.80
2022-08-12T04:51:10.140Z,4.60
2022-08-12T04:53:13.003Z,4.85
2022-08-12T04:55:14.716Z,4.70
2022-08-12T04:57:16.256Z,4.75
2022-08-12T04:59:17.687Z,4.32
2022-08-12T05:01:20.250Z,5.03
2022-08-12T05:03:21.762Z,4.53
2022-08-12T05:05:23.656Z,4.63
2022-08-12T05:07:26.459Z,4.28
2022-08-12T05:09:58.908Z,3.97
2022-08-12T05:11:54.309Z,4.13
2022-08-12T05:13:58.319Z,4.78
2022-08-12T05:16:04.858Z,4.70
2022-08-12T05:18:19.702Z,4.55
2022-08-12T05:20:22.722Z,4.95
2022-08-12T05:22:24.286Z,4.93
2022-08-12T05:24:25.743Z,5.00
2022-08-12T05:26:28.368Z,4.55
2022-08-12T05:28:30.456Z,4.18
2022-08-12T05:30:34.480Z,4.32
2022-08-12T05:32:37.351Z,4.28
2022-08-12T05:34:41.159Z,4.05
2022-08-12T05:36:45.843Z,4.18
2022-08-12T05:38:56.585Z,3.45
2022-08-12T05:40:58.431Z,4.15
2022-08-12T05:42:59.896Z,4.70
2022-08-12T05:45:01.785Z,4.20
2022-08-12T05:47:04.452Z,4.00
2022-08-12T05:49:06.307Z,4.22
2022-08-12T05:51:08.255Z,4.10
2022-08-12T05:53:09.683Z,4.70
2022-08-12T05:55:11.819Z,4.65
2022-08-12T05:57:14.020Z,4.60
2022-08-12T05:59:15.583Z,4.07
2022-08-12T06:02:09.597Z,4.45
2022-08-12T06:03:39.732Z,4.90
2022-08-12T06:05:55.127Z,4.25
2022-08-12T06:08:02.137Z,4.35
2022-08-12T06:10:04.659Z,4.45
2022-08-12T06:12:06.778Z,4.95
2022-08-12T06:14:12.016Z,4.28
2022-08-12T06:16:15.306Z,4.78
2022-08-12T06:18:16.878Z,5.22
2022-08-12T06:20:26.684Z,4.43
2022-08-12T06:22:31.582Z,4.72
2022-08-12T06:24:33.349Z,4.20
2022-08-12T06:26:34.930Z,4.25
2022-08-12T06:28:36.355Z,4.03
2022-08-12T06:30:39.503Z,4.50
2022-08-12T06:32:51.881Z,4.03
2022-08-12T06:35:26.883Z,3.33
2022-08-12T06:37:27.554Z,3.40
2022-08-12T06:39:29.041Z,2.72
2022-08-12T06:42:30.566Z,2.80
2022-08-12T06:44:17.275Z,2.15
2022-08-12T06:46:19.652Z,2.25
2022-08-12T06:48:21.172Z,2.22
2022-08-12T06:50:22.700Z,2.38
2022-08-12T06:52:24.936Z,2.53
2022-08-12T06:54:30.842Z,2.72
2022-08-12T06:57:02.459Z,1.48
2022-08-12T06:58:57.838Z,1.83
2022-08-12T07:03:22.785Z,1.92
2022-08-12T07:05:26.884Z,1.60
2022-08-12T07:07:28.440Z,2.40
2022-08-12T07:10:04.499Z,2.00
2022-08-12T07:11:51.387Z,1.85
2022-08-12T07:14:02.476Z,1.63
2022-08-12T07:16:14.950Z,1.42
2022-08-12T07:20:50.725Z,1.52
2022-08-12T07:22:42.629Z,1.50
2022-08-12T07:25:04.187Z,1.20
2022-08-12T07:27:05.757Z,1.40
2022-08-12T07:29:09.763Z,1.90
2022-08-12T07:31:12.476Z,1.67
2022-08-12T07:33:20.159Z,1.40
2022-08-12T07:35:21.743Z,2.00
2022-08-12T07:37:23.653Z,1.83
2022-08-12T07:39:27.304Z,1.65
2022-08-12T07:41:30.413Z,1.45
2022-08-12T07:43:33.392Z,1.30
2022-08-12T07:45:34.946Z,1.45
2022-08-12T07:47:36.572Z,1.50
2022-08-12T07:50:03.564Z,1.47
2022-08-12T07:52:00.407Z,1.63
2022-08-12T07:56:05.301Z,1.30
2022-08-12T07:58:06.826Z,1.20
2022-08-12T08:00:08.672Z,1.58
2022-08-12T08:02:10.140Z,1.40
2022-08-12T08:06:53.186Z,1.35
2022-08-12T08:11:44.462Z,1.35
2022-08-12T08:13:46.196Z,1.33
2022-08-12T08:16:03.111Z,1.10
2022-08-12T08:18:09.972Z,1.73
2022-08-12T08:20:12.963Z,2.08
2022-08-12T08:34:54.486Z,1.08
2022-08-12T08:36:52.011Z,1.75
2022-08-12T08:38:58.226Z,1.20
2022-08-12T08:42:15.533Z,1.38
2022-08-12T08:43:44.757Z,1.52
2022-08-12T08:45:48.313Z,1.42
2022-08-12T08:47:51.613Z,1.58
2022-08-12T08:49:53.838Z,1.45
2022-08-12T08:51:55.703Z,1.75
2022-08-12T08:53:57.387Z,1.23
2022-08-12T08:56:05.030Z,1.13
2022-08-12T08:58:08.861Z,1.55
2022-08-12T09:00:15.226Z,1.90
2022-08-12T09:02:17.578Z,1.60
2022-08-12T09:05:08.850Z,2.00
2022-08-12T09:06:53.480Z,1.95
2022-08-12T09:08:55.555Z,1.05
2022-08-12T09:12:06.888Z,1.38
2022-08-12T09:14:10.198Z,1.88
2022-08-12T09:16:02.459Z,1.35
2022-08-12T09:18:09.026Z,2.40
2022-08-12T09:20:15.857Z,1.60
2022-08-12T09:22:18.659Z,1.20
2022-08-12T09:24:22.337Z,1.60
2022-08-12T09:26:28.107Z,1.38
2022-08-12T09:30:59.164Z,1.95
2022-08-12T09:35:28.625Z,1.43
2022-08-12T09:37:57.952Z,1.40
2022-08-12T09:40:03.304Z,1.43
2022-08-12T09:42:54.269Z,1.30
2022-08-12T09:45:17.855Z,1.35
2022-08-12T09:47:20.394Z,1.33
2022-08-12T09:49:37.218Z,1.40
2022-08-12T09:51:44.499Z,1.60
2022-08-12T09:54:05.469Z,1.40
2022-08-12T09:56:59.902Z,1.60
2022-08-12T09:58:56.936Z,1.52
2022-08-12T10:01:06.588Z,1.40
2022-08-12T10:03:31.405Z,2.08
2022-08-12T10:06:19.886Z,1.52
2022-08-12T10:07:57.833Z,1.63
2022-08-12T10:14:36.595Z,1.38
2022-08-12T10:16:43.815Z,1.48
2022-08-12T10:18:52.083Z,1.23
2022-08-12T10:20:54.143Z,1.48
2022-08-12T10:22:57.648Z,1.67
2022-08-12T10:25:18.262Z,1.35
2022-08-12T10:28:00.810Z,1.52
2022-08-12T10:30:37.781Z,1.17
2022-08-12T10:32:44.038Z,1.35
2022-08-12T10:34:53.143Z,1.30
2022-08-12T10:37:00.255Z,1.38
2022-08-12T10:40:00.633Z,1.00
2022-08-12T10:41:57.994Z,1.30
2022-08-12T10:44:05.180Z,1.58
2022-08-12T10:46:17.553Z,1.10
2022-08-12T10:48:26.847Z,1.40
2022-08-12T10:51:01.091Z,1.45
2022-08-12T10:52:57.085Z,1.45
2022-08-12T10:54:59.633Z,1.48
2022-08-12T10:57:01.200Z,1.60
2022-08-12T10:59:05.776Z,1.40
2022-08-12T11:04:14.814Z,1.50
2022-08-12T11:04:22.492Z,1.63
2022-08-12T11:07:06.646Z,1.60
2022-08-12T11:08:38.512Z,1.75
2022-08-12T11:10:43.564Z,2.20
2022-08-12T11:12:59.014Z,1.42
2022-08-12T11:15:19.208Z,1.70
2022-08-12T11:17:43.711Z,1.95
2022-08-12T11:19:45.599Z,1.57
2022-08-12T11:21:57.072Z,1.73
2022-08-12T11:26:05.455Z,1.60
2022-08-12T11:28:07.581Z,1.38
2022-08-12T11:30:31.321Z,1.45
2022-08-12T11:32:30.938Z,1.38
2022-08-12T11:34:52.876Z,1.42
2022-08-12T11:36:57.337Z,1.20
2022-08-12T11:39:04.224Z,1.52
2022-08-12T11:41:06.998Z,1.95
2022-08-12T11:43:20.119Z,1.17
2022-08-12T11:45:25.044Z,1.13
2022-08-12T11:47:27.066Z,1.50
2022-08-12T11:49:32.174Z,1.52
2022-08-12T11:51:36.459Z,1.60
2022-08-12T11:54:01.179Z,1.30
2022-08-12T11:56:06.816Z,1.60
2022-08-12T11:59:44.367Z,1.55
2022-08-12T12:02:51.671Z,1.33
2022-08-12T12:04:53.822Z,1.60
2022-08-12T12:06:55.414Z,1.67
2022-08-12T12:08:56.907Z,1.20
2022-08-12T12:11:02.417Z,1.20
2022-08-12T12:13:11.762Z,1.77
2022-08-12T12:15:25.356Z,1.45
2022-08-12T12:17:39.664Z,1.55
2022-08-12T12:19:46.195Z,1.00
2022-08-12T12:21:49.476Z,1.52
2022-08-12T12:23:51.687Z,1.50
2022-08-12T12:26:06.647Z,1.20
2022-08-12T12:28:09.849Z,1.45
2022-08-12T12:30:31.326Z,1.27
2022-08-12T12:32:33.052Z,2.30
2022-08-12T12:34:34.514Z,1.35
2022-08-12T12:36:35.995Z,1.25
2022-08-12T12:38:37.943Z,1.67
2022-08-12T12:40:41.281Z,1.73
2022-08-12T12:42:55.419Z,1.52
2022-08-12T12:45:02.091Z,1.90
2022-08-12T12:47:29.130Z,2.00
2022-08-12T12:49:31.781Z,1.40
2022-08-12T12:51:48.951Z,1.35
2022-08-12T12:54:06.305Z,1.60
2022-08-12T12:56:34.242Z,1.90
2022-08-12T12:58:47.786Z,1.65
2022-08-12T13:01:27.959Z,1.55
2022-08-12T13:03:51.683Z,1.40
2022-08-12T13:05:57.415Z,1.15
2022-08-12T13:08:01.695Z,1.80
2022-08-12T13:10:08.520Z,1.98
2022-08-12T13:12:10.873Z,2.30
2022-08-12T13:14:29.673Z,1.60
2022-08-12T13:16:32.890Z,1.38
2022-08-12T13:18:39.255Z,1.50
2022-08-12T13:20:48.369Z,1.13
2022-08-12T13:22:54.498Z,1.40
2022-08-12T13:25:02.304Z,1.30
2022-08-12T13:27:06.888Z,1.95
2022-08-12T13:29:12.001Z,1.35
2022-08-12T13:31:18.519Z,1.40
2022-08-12T13:33:28.514Z,1.52
2022-08-12T13:36:05.538Z,1.40
2022-08-12T13:38:02.698Z,1.60
2022-08-12T13:40:07.821Z,1.73
2022-08-12T13:42:14.275Z,1.35
2022-08-12T13:44:20.774Z,1.40
2022-08-12T13:46:26.715Z,1.48
2022-08-12T13:48:31.308Z,1.55
2022-08-12T13:50:39.178Z,1.80
2022-08-12T13:52:42.336Z,2.20
2022-08-12T13:54:56.235Z,1.40
2022-08-12T13:56:58.647Z,2.13
2022-08-12T13:59:03.443Z,1.50
2022-08-12T14:01:08.898Z,1.80
2022-08-12T14:03:13.544Z,1.83
2022-08-12T14:05:31.304Z,1.80
2022-08-12T14:07:52.775Z,2.53
2022-08-12T14:10:16.484Z,1.92
2022-08-12T14:12:22.049Z,2.13
2022-08-12T14:14:26.235Z,1.83
2022-08-12T14:16:37.434Z,1.48
2022-08-12T14:18:50.566Z,1.15
2022-08-12T14:20:57.680Z,1.33
2022-08-12T14:23:01.082Z,1.60
2022-08-12T14:25:24.787Z,1.33
2022-08-12T14:28:03.488Z,1.70
2022-08-12T14:30:04.292Z,1.40
2022-08-12T14:32:07.944Z,1.30
2022-08-12T14:34:20.237Z,1.10
2022-08-12T14:36:29.777Z,1.30
2022-08-12T14:38:32.863Z,1.10
2022-08-12T14:40:34.349Z,1.58
2022-08-12T14:42:36.607Z,1.27
2022-08-12T14:44:57.488Z,1.33
2022-08-12T14:47:00.651Z,1.10
2022-08-12T14:49:27.348Z,1.27
2022-08-12T14:52:55.965Z,1.25
2022-08-12T14:54:49.891Z,1.20
2022-08-12T14:58:34.271Z,1.30
2022-08-12T15:00:54.591Z,1.33
2022-08-12T15:02:56.402Z,1.65
2022-08-12T15:05:03.564Z,1.10
2022-08-12T15:07:05.416Z,1.48
2022-08-12T15:09:11.837Z,1.15
2022-08-12T15:11:14.681Z,1.20
2022-08-12T15:13:17.353Z,1.10
2022-08-12T15:15:20.074Z,1.42
2022-08-12T15:17:38.041Z,1.58
2022-08-12T15:20:31.021Z,1.67
2022-08-12T15:22:38.178Z,1.52
2022-08-12T15:24:23.304Z,1.23
2022-08-12T15:26:27.453Z,1.63
2022-08-12T15:28:32.917Z,1.33
2022-08-12T15:30:37.220Z,1.38
2022-08-12T15:32:40.584Z,1.55
2022-08-12T15:34:42.552Z,1.65
2022-08-12T15:36:54.769Z,1.70
2022-08-12T15:38:57.566Z,1.40
2022-08-12T15:41:00.132Z,1.10
2022-08-12T15:43:04.431Z,1.50
2022-08-12T15:45:09.785Z,1.23
2022-08-12T15:47:26.635Z,1.35
2022-08-12T15:49:28.787Z,1.48
2022-08-12T15:51:59.474Z,2.65
2022-08-12T15:54:22.629Z,1.48
2022-08-12T15:56:30.008Z,1.25
2022-08-12T15:58:33.837Z,1.48
2022-08-12T16:00:36.892Z,1.15
2022-08-12T16:02:50.114Z,1.98
2022-08-12T16:04:52.719Z,1.58
2022-08-12T16:07:11.588Z,1.85
2022-08-12T16:09:55.837Z,1.30
2022-08-12T16:11:44.137Z,1.63
2022-08-12T16:13:45.757Z,1.50
2022-08-12T16:15:51.121Z,2.00
2022-08-12T16:18:14.828Z,1.88
2022-08-12T16:20:22.072Z,1.48
2022-08-12T16:22:35.147Z,1.70
2022-08-12T16:24:43.660Z,1.70
2022-08-12T16:26:45.311Z,1.42
2022-08-12T16:28:56.243Z,1.27
2022-08-12T16:30:59.170Z,1.38
2022-08-12T16:33:08.929Z,1.20
2022-08-12T16:35:16.490Z,1.27
2022-08-12T16:37:18.675Z,1.38
2022-08-12T16:39:24.450Z,1.38
2022-08-12T16:43:34.461Z,1.42
2022-08-12T16:46:05.547Z,2.03
2022-08-12T16:48:04.154Z,1.67
2022-08-12T16:50:08.863Z,2.05
2022-08-12T16:52:18.445Z,1.63
2022-08-12T16:54:26.599Z,1.73
2022-08-12T16:56:39.433Z,1.52
2022-08-12T16:58:54.487Z,1.40
2022-08-12T17:00:57.956Z,2.03
2022-08-12T17:05:05.036Z,1.50
2022-08-12T17:07:17.127Z,1.67
2022-08-12T17:09:19.105Z,1.85
2022-08-12T17:11:20.971Z,1.60
2022-08-12T17:13:26.199Z,1.70
2022-08-12T17:16:05.891Z,1.70
2022-08-12T17:17:50.326Z,2.10
2022-08-12T17:20:34.034Z,2.22
2022-08-12T17:22:34.012Z,1.88
2022-08-12T17:24:37.291Z,1.77
2022-08-12T17:26:45.034Z,2.00
2022-08-12T17:28:53.323Z,2.13
2022-08-12T17:30:59.616Z,2.20
2022-08-12T17:33:02.961Z,2.10
2022-08-12T17:35:30.217Z,2.50
2022-08-12T17:37:39.503Z,2.88
2022-08-12T17:40:15.209Z,2.63
2022-08-12T17:42:04.041Z,1.85
2022-08-12T17:44:25.627Z,2.35
2022-08-12T17:46:33.502Z,1.80
2022-08-12T17:48:38.617Z,2.20
2022-08-12T17:50:42.696Z,2.20
2022-08-12T17:52:44.839Z,2.17
2022-08-12T17:54:52.519Z,1.85
2022-08-12T17:56:57.680Z,2.10
2022-08-12T17:59:00.483Z,2.20
2022-08-12T18:01:03.444Z,1.75
2022-08-12T18:03:05.349Z,1.92
2022-08-12T18:05:10.782Z,1.88
2022-08-12T18:07:13.388Z,1.83
2022-08-12T18:09:16.246Z,2.35
2022-08-12T18:12:06.299Z,2.25
2022-08-12T18:13:58.047Z,1.95
2022-08-12T18:16:06.507Z,2.20
2022-08-12T18:18:16.931Z,2.05
2022-08-12T18:20:19.099Z,1.85
2022-08-12T18:22:21.936Z,1.83
2022-08-12T18:24:32.859Z,2.10
2022-08-12T18:26:34.907Z,1.83
2022-08-12T18:28:43.050Z,1.70
2022-08-12T18:30:52.748Z,2.40
2022-08-12T18:32:59.395Z,1.70
2022-08-12T18:35:10.936Z,1.90
2022-08-12T18:37:41.120Z,1.73
2022-08-12T18:39:55.163Z,1.92
2022-08-12T18:41:58.122Z,2.10
2022-08-12T18:44:10.077Z,1.65
2022-08-12T18:46:13.463Z,2.50
2022-08-12T18:48:16.749Z,2.20
2022-08-12T18:50:18.371Z,2.35
2022-08-12T18:52:19.931Z,1.75
2022-08-12T18:54:22.299Z,2.33
2022-08-12T18:56:33.953Z,2.40
2022-08-12T18:58:37.204Z,2.72
2022-08-12T19:00:40.225Z,1.92
2022-08-12T19:02:46.874Z,2.13
2022-08-12T19:06:55.286Z,2.30
2022-08-12T19:08:57.534Z,2.78
2022-08-12T19:11:19.590Z,2.60
2022-08-12T19:13:39.940Z,2.67
2022-08-12T19:15:45.411Z,2.42
2022-08-12T19:18:00.725Z,3.30
2022-08-12T19:20:05.702Z,3.08
2022-08-12T19:22:13.654Z,2.38
2022-08-12T19:24:49.386Z,2.95
2022-08-12T19:26:57.458Z,2.95
2022-08-12T19:28:59.752Z,3.00
2022-08-12T19:31:44.755Z,2.95
2022-08-12T19:34:25.591Z,3.42
2022-08-12T19:36:25.314Z,3.78
2022-08-12T19:38:29.731Z,3.80
2022-08-12T19:40:35.290Z,3.38
2022-08-12T19:42:44.887Z,3.67
2022-08-12T19:44:58.464Z,4.05
2022-08-12T19:47:05.742Z,3.70
2022-08-12T19:49:16.327Z,4.25
2022-08-12T19:51:46.680Z,4.93
2022-08-12T19:53:57.803Z,4.57
2022-08-12T19:56:04.224Z,3.53
2022-08-12T19:58:18.198Z,4.05
2022-08-12T20:00:29.816Z,3.53
2022-08-12T20:02:39.692Z,3.53
2022-08-12T20:04:49.323Z,3.97
2022-08-12T20:07:23.509Z,3.97
2022-08-12T20:09:27.370Z,3.88
2022-08-12T20:12:09.579Z,3.80
2022-08-12T20:14:03.912Z,4.82
2022-08-12T20:16:06.219Z,4.85
2022-08-12T20:18:53.555Z,4.10
2022-08-12T20:20:54.214Z,3.88
2022-08-12T20:22:57.135Z,4.43
2022-08-12T20:25:01.040Z,4.85
2022-08-12T20:27:29.381Z,3.97
2022-08-12T20:29:45.347Z,3.80
2022-08-12T20:31:48.319Z,4.20
2022-08-12T20:33:56.083Z,3.97
2022-08-12T20:36:13.353Z,3.75
2022-08-12T20:38:26.929Z,4.25
2022-08-12T20:40:29.188Z,3.80
2022-08-12T20:42:32.029Z,3.83
2022-08-12T20:44:36.190Z,3.40
2022-08-12T20:46:41.230Z,3.42
2022-08-12T20:48:44.177Z,3.75
2022-08-12T20:50:53.427Z,4.03
2022-08-12T20:52:55.543Z,4.20
2022-08-12T20:54:57.940Z,3.42
2022-08-12T20:57:01.050Z,4.00
2022-08-12T20:59:04.829Z,4.28
2022-08-12T21:01:08.618Z,4.10
2022-08-12T21:03:38.887Z,4.03
2022-08-12T21:06:14.109Z,3.70
2022-08-12T21:08:18.766Z,3.22
2022-08-12T21:10:26.589Z,3.05
2022-08-12T21:12:34.539Z,3.63
2022-08-12T21:14:39.914Z,4.45
2022-08-12T21:16:55.378Z,3.55
2022-08-12T21:18:58.022Z,3.53
2022-08-12T21:20:59.524Z,3.67
2022-08-12T21:23:04.309Z,4.53
2022-08-12T21:25:14.564Z,3.25
2022-08-12T21:27:18.657Z,4.15
2022-08-12T21:29:22.210Z,4.10
2022-08-12T21:32:47.059Z,4.85
2022-08-12T21:34:08.682Z,3.33
2022-08-12T21:36:22.255Z,3.83
2022-08-12T21:38:30.556Z,3.28
2022-08-12T21:40:37.234Z,4.25
2022-08-12T21:42:53.230Z,4.32
2022-08-12T21:45:47.440Z,4.95
2022-08-12T21:47:22.351Z,3.88
2022-08-12T21:49:54.873Z,4.20
2022-08-12T21:51:50.636Z,3.92
2022-08-12T21:54:07.122Z,3.63
2022-08-12T21:56:10.138Z,4.18
2022-08-12T21:58:31.762Z,4.20
2022-08-12T22:00:36.743Z,4.50
2022-08-12T22:02:57.371Z,8.52
2022-08-12T22:05:20.850Z,5.20
2022-08-12T22:07:28.858Z,3.72
2022-08-12T22:09:47.594Z,4.85
2022-08-12T22:12:20.359Z,4.60
2022-08-12T22:14:23.858Z,5.85
2022-08-12T22:16:31.124Z,4.55
2022-08-12T22:18:38.286Z,5.57
2022-08-12T22:22:43.190Z,4.93
2022-08-12T22:24:58.443Z,5.25
2022-08-12T22:27:18.483Z,5.57
2022-08-12T22:29:41.118Z,5.35
2022-08-12T22:31:43.385Z,5.72
2022-08-12T22:33:54.554Z,4.47
2022-08-12T22:36:00.889Z,4.97
2022-08-12T22:38:17.206Z,5.43
2022-08-12T22:40:21.159Z,5.45
2022-08-12T22:42:41.498Z,5.32
2022-08-12T22:45:01.706Z,5.13
2022-08-12T22:47:55.318Z,4.65
2022-08-12T22:49:59.464Z,4.97
2022-08-12T22:52:08.602Z,5.15
2022-08-12T22:54:36.959Z,5.70
2022-08-12T22:56:47.944Z,5.70
2022-08-12T22:59:00.867Z,5.40
2022-08-12T23:01:21.553Z,4.30
2022-08-12T23:03:51.085Z,4.45
2022-08-12T23:06:10.410Z,4.75
2022-08-12T23:08:23.449Z,5.28
2022-08-12T23:10:45.011Z,5.05
2022-08-12T23:13:07.907Z,4.75
2022-08-12T23:15:09.802Z,4.47
2022-08-12T23:17:21.363Z,5.22
2022-08-12T23:19:38.430Z,5.00
2022-08-12T23:22:05.678Z,4.60
2022-08-12T23:24:16.953Z,4.43
2022-08-12T23:26:18.753Z,4.40
2022-08-12T23:28:40.114Z,4.77
2022-08-12T23:30:44.471Z,4.60
2022-08-12T23:32:46.378Z,5.05
2022-08-12T23:34:59.096Z,5.10
2022-08-12T23:37:01.233Z,5.13
2022-08-12T23:39:04.234Z,5.30
2022-08-12T23:41:11.798Z,5.13
2022-08-12T23:43:13.235Z,4.70
2022-08-12T23:45:20.827Z,5.38
2022-08-12T23:47:34.014Z,5.25
2022-08-12T23:49:58.280Z,4.47
2022-08-12T23:52:08.606Z,4.82
2022-08-12T23:54:10.500Z,4.68
2022-08-12T23:56:34.901Z,4.85
2022-08-12T23:58:36.847Z,4.63
